Time;durP1;ratioP1;P1;durP2;ratioP2;P2;SDS_P1;SDS_P2;PMS_P1;PMS_P2;Temp;Humidity;BMP_temperature;BMP_pressure;BME280_temperature;BME280_humidity;BME280_pressure;Samples;Min_cycle;Max_cycle;Signal;HPM_P1;HPM_P2
2022/07/26 00:00:50;;;;;;;2.38;1.50;;;20.20;1.00;;;;;;4952689;29;20114;-91
2022/07/26 00:03:37;;;;;;;3.88;1.65;;;20.20;1.00;;;;;;4968416;28;20065;-90
2022/07/26 00:06:24;;;;;;;4.15;1.80;;;20.20;1.00;;;;;;4982359;28;20105;-90
2022/07/26 00:09:12;;;;;;;3.63;1.90;;;20.10;1.00;;;;;;4950759;28;20054;-91
2022/07/26 00:12:01;;;;;;;3.22;1.60;;;20.10;1.00;;;;;;4959263;28;20052;-89
2022/07/26 00:14:49;;;;;;;4.03;1.67;;;20.10;1.00;;;;;;4964463;28;20110;-91
2022/07/26 00:17:38;;;;;;;3.42;2.17;;;20.10;1.00;;;;;;4955960;28;20044;-92
2022/07/26 00:20:28;;;;;;;4.97;1.85;;;20.30;1.00;;;;;;4957283;28;20083;-88
2022/07/26 00:23:15;;;;;;;2.92;1.58;;;20.30;1.00;;;;;;4966910;28;20055;-90
2022/07/26 00:26:02;;;;;;;4.30;1.55;;;20.40;1.00;;;;;;4952099;28;20070;-91
2022/07/26 00:28:52;;;;;;;7.10;2.10;;;20.40;1.00;;;;;;4965515;28;20051;-89
2022/07/26 00:31:39;;;;;;;5.25;2.10;;;20.40;1.00;;;;;;4949741;28;20079;-91
2022/07/26 00:34:27;;;;;;;3.50;1.80;;;20.40;1.00;;;;;;4948225;28;20059;-90
2022/07/26 00:37:14;;;;;;;8.88;1.88;;;20.40;1.00;;;;;;4952090;28;20078;-90
2022/07/26 00:40:07;;;;;;;7.60;1.90;;;20.40;1.00;;;;;;4959527;28;20036;-88
2022/07/26 00:42:55;;;;;;;4.50;1.63;;;20.40;1.00;;;;;;4936756;29;20199;-89
2022/07/26 00:45:42;;;;;;;7.03;2.15;;;20.40;1.00;;;;;;4945185;29;20094;-90
2022/07/26 00:48:29;;;;;;;4.63;1.70;;;20.30;1.00;;;;;;4959576;29;20043;-90
2022/07/26 00:51:17;;;;;;;2.35;1.38;;;20.40;1.00;;;;;;4973698;28;20209;-87
2022/07/26 00:54:05;;;;;;;8.23;1.52;;;20.50;1.00;;;;;;4963109;28;20044;-88
2022/07/26 00:56:53;;;;;;;2.60;1.50;;;20.50;1.00;;;;;;4948342;28;20051;-90
2022/07/26 00:59:42;;;;;;;11.25;1.45;;;20.50;1.00;;;;;;4958846;29;20494;-90
2022/07/26 01:02:29;;;;;;;2.28;1.27;;;20.60;1.00;;;;;;4962770;28;20050;-90
2022/07/26 01:05:20;;;;;;;4.78;1.80;;;20.50;1.00;;;;;;4967536;28;20111;-89
2022/07/26 01:08:08;;;;;;;4.70;1.47;;;20.50;1.00;;;;;;4982519;28;20051;-90
2022/07/26 01:10:58;;;;;;;2.13;1.20;;;20.50;1.00;;;;;;4958852;28;20295;-90
2022/07/26 01:13:50;;;;;;;3.33;1.50;;;20.40;1.00;;;;;;4955881;29;20051;-88
2022/07/26 01:16:37;;;;;;;5.15;1.20;;;20.40;1.00;;;;;;4978629;28;20027;-81
2022/07/26 01:19:24;;;;;;;5.20;1.50;;;20.40;1.00;;;;;;4974234;28;20043;-89
2022/07/26 01:22:11;;;;;;;3.85;1.58;;;20.40;1.00;;;;;;4970427;28;20397;-91
2022/07/26 01:25:01;;;;;;;3.25;1.25;;;20.40;1.00;;;;;;4974325;28;20078;-91
2022/07/26 01:27:48;;;;;;;5.22;1.30;;;20.30;1.00;;;;;;4973308;28;20071;-91
2022/07/26 01:30:35;;;;;;;3.95;1.50;;;20.40;1.00;;;;;;4969632;28;20062;-91
2022/07/26 01:33:26;;;;;;;3.17;1.20;;;20.40;1.00;;;;;;4969669;28;20475;-90
2022/07/26 01:36:14;;;;;;;2.78;1.42;;;20.30;1.00;;;;;;4962761;28;20401;-87
2022/07/26 01:39:03;;;;;;;2.03;1.40;;;20.30;1.00;;;;;;4969039;28;20047;-90
2022/07/26 01:41:55;;;;;;;2.22;1.20;;;20.40;1.00;;;;;;4969738;28;20110;-85
2022/07/26 01:44:42;;;;;;;2.85;1.08;;;20.30;1.00;;;;;;4959627;28;20047;-87
2022/07/26 01:47:30;;;;;;;1.98;1.02;;;20.30;1.00;;;;;;4956937;28;20051;-89
2022/07/26 01:50:17;;;;;;;5.95;1.10;;;20.30;1.00;;;;;;4952136;28;20454;-91
2022/07/26 01:53:04;;;;;;;3.45;1.25;;;20.30;1.00;;;;;;4937920;29;20549;-89
2022/07/26 01:55:52;;;;;;;4.18;1.13;;;20.20;1.00;;;;;;4958911;28;20054;-91
2022/07/26 01:58:44;;;;;;;2.47;1.15;;;20.20;1.00;;;;;;4960500;28;20099;-88
2022/07/26 02:01:31;;;;;;;3.43;1.30;;;20.20;1.00;;;;;;4960644;28;20118;-90
2022/07/26 02:07:36;;;;;;;4.63;1.38;;;20.00;1.00;;;;;;4955593;28;20141;-90
2022/07/26 02:13:40;;;;;;;4.43;1.25;;;19.80;1.00;;;;;;4957100;29;20051;-91
2022/07/26 02:16:27;;;;;;;2.78;1.20;;;19.80;1.00;;;;;;4953883;28;20083;-91
2022/07/26 02:19:14;;;;;;;3.25;1.20;;;19.80;1.00;;;;;;4957343;28;20401;-83
2022/07/26 02:22:04;;;;;;;4.20;0.95;;;19.70;1.00;;;;;;4959774;28;20097;-90
2022/07/26 02:24:52;;;;;;;2.28;1.20;;;19.70;1.00;;;;;;4958417;28;20055;-80
2022/07/26 02:27:39;;;;;;;2.58;1.58;;;19.70;1.00;;;;;;4978181;28;20023;-90
2022/07/26 02:30:27;;;;;;;7.05;1.30;;;19.60;1.00;;;;;;4977576;28;20055;-80
2022/07/26 02:33:15;;;;;;;1.25;1.02;;;19.70;1.00;;;;;;4969328;28;20051;-90
2022/07/26 02:36:02;;;;;;;2.95;1.00;;;19.70;1.00;;;;;;4972634;28;20111;-90
2022/07/26 02:38:52;;;;;;;1.92;1.33;;;19.70;1.00;;;;;;4964163;28;20055;-91
2022/07/26 02:41:39;;;;;;;3.10;1.00;;;19.80;1.00;;;;;;4955844;29;20062;-91
2022/07/26 02:44:28;;;;;;;5.78;1.17;;;19.80;1.00;;;;;;4969174;28;20649;-89
2022/07/26 02:47:15;;;;;;;3.17;1.33;;;19.80;1.00;;;;;;4951778;28;20040;-88
2022/07/26 02:50:05;;;;;;;4.53;1.20;;;19.80;1.00;;;;;;4945937;28;20070;-90
2022/07/26 02:52:53;;;;;;;4.30;1.27;;;19.80;1.00;;;;;;4950231;29;20138;-89
2022/07/26 02:55:40;;;;;;;3.97;1.10;;;19.80;1.00;;;;;;4958894;28;20043;-90
2022/07/26 02:58:28;;;;;;;1.77;1.10;;;19.70;1.00;;;;;;4936501;29;20133;-90
2022/07/26 03:01:15;;;;;;;4.53;1.55;;;19.80;1.00;;;;;;4956827;28;20077;-90
2022/07/26 03:04:02;;;;;;;1.77;1.02;;;19.80;1.00;;;;;;4963676;28;20458;-89
2022/07/26 03:06:49;;;;;;;1.95;1.15;;;19.70;1.00;;;;;;4958200;29;20059;-88
2022/07/26 03:09:36;;;;;;;1.20;1.10;;;19.70;1.00;;;;;;4958357;28;20110;-81
2022/07/26 03:12:24;;;;;;;4.07;1.33;;;19.70;1.00;;;;;;4948017;28;20043;-91
2022/07/26 03:15:13;;;;;;;3.78;1.23;;;19.70;1.00;;;;;;4960033;28;20070;-89
2022/07/26 03:18:00;;;;;;;2.45;1.13;;;19.70;1.00;;;;;;4961702;28;20054;-91
2022/07/26 03:20:48;;;;;;;2.08;1.30;;;19.70;1.00;;;;;;4936476;29;20098;-89
2022/07/26 03:23:36;;;;;;;3.28;1.90;;;19.60;1.00;;;;;;4961312;28;20046;-90
2022/07/26 03:26:23;;;;;;;3.22;1.40;;;19.60;1.00;;;;;;4965641;28;20050;-89
2022/07/26 03:29:10;;;;;;;3.78;1.70;;;19.60;1.00;;;;;;4960618;28;20086;-90
2022/07/26 03:31:57;;;;;;;1.88;1.65;;;19.60;1.00;;;;;;4965120;28;20126;-90
2022/07/26 03:34:44;;;;;;;2.53;1.20;;;19.60;1.00;;;;;;4965867;28;20051;-91
2022/07/26 03:37:32;;;;;;;3.40;1.45;;;19.60;1.00;;;;;;4968775;28;20046;-88
2022/07/26 03:40:32;;;;;;;5.90;1.45;;;19.50;1.00;;;;;;4962809;28;20502;-90
2022/07/26 03:43:19;;;;;;;3.60;1.65;;;19.40;1.00;;;;;;4954475;28;20039;-91
2022/07/26 03:46:09;;;;;;;2.47;1.33;;;19.30;1.00;;;;;;4959649;29;20036;-89
2022/07/26 03:48:57;;;;;;;2.10;1.65;;;19.30;1.00;;;;;;4962934;28;20061;-89
2022/07/26 03:51:45;;;;;;;5.22;1.55;;;19.30;1.00;;;;;;4960821;28;20118;-86
2022/07/26 03:54:32;;;;;;;1.80;1.60;;;19.20;1.00;;;;;;4955264;28;20047;-89
2022/07/26 03:57:19;;;;;;;3.35;1.40;;;19.10;1.00;;;;;;4957714;28;20087;-91
2022/07/26 04:00:10;;;;;;;2.72;1.60;;;19.00;1.00;;;;;;4962705;28;20436;-89
2022/07/26 04:02:57;;;;;;;3.75;1.73;;;18.90;1.00;;;;;;4952819;28;20055;-90
2022/07/26 04:05:59;;;;;;;3.28;1.70;;;18.80;1.00;;;;;;4943399;28;20163;-89
2022/07/26 04:08:49;;;;;;;7.85;2.10;;;18.80;1.00;;;;;;4952423;28;20488;-88
2022/07/26 04:11:39;;;;;;;2.92;1.90;;;18.70;1.00;;;;;;4953217;29;20051;-90
2022/07/26 04:14:28;;;;;;;4.75;1.67;;;18.60;1.00;;;;;;4964934;28;20043;-89
2022/07/26 04:17:15;;;;;;;4.07;1.80;;;18.60;1.00;;;;;;4962628;28;20046;-90
2022/07/26 04:20:04;;;;;;;8.85;2.00;;;18.50;1.00;;;;;;4953253;28;20377;-88
2022/07/26 04:22:51;;;;;;;6.78;2.55;;;18.40;1.00;;;;;;4960957;29;20102;-90
2022/07/26 04:25:39;;;;;;;3.28;2.30;;;18.40;1.00;;;;;;4944223;29;20066;-89
2022/07/26 04:28:27;;;;;;;4.30;2.22;;;18.30;3.10;;;;;;4960381;28;20133;-87
2022/07/26 04:31:15;;;;;;;5.85;2.33;;;18.30;9.40;;;;;;4957119;28;20043;-88
2022/07/26 04:34:03;;;;;;;6.40;2.15;;;18.20;15.40;;;;;;4947960;28;20062;-86
2022/07/26 04:36:50;;;;;;;2.67;1.63;;;18.10;21.60;;;;;;4955970;28;20110;-92
2022/07/26 04:39:40;;;;;;;2.35;1.75;;;18.10;25.40;;;;;;4957365;28;20055;-87
2022/07/26 04:42:28;;;;;;;5.00;1.83;;;18.10;30.60;;;;;;4961403;28;20051;-89
2022/07/26 04:45:15;;;;;;;3.10;2.20;;;18.00;40.00;;;;;;4962908;28;20086;-90
2022/07/26 04:48:03;;;;;;;2.90;2.22;;;18.00;46.60;;;;;;4955879;29;20544;-90
2022/07/26 04:50:53;;;;;;;3.55;1.95;;;18.10;46.50;;;;;;4960161;28;20453;-91
2022/07/26 04:53:40;;;;;;;3.55;2.60;;;18.20;41.30;;;;;;4951469;28;20055;-89
2022/07/26 04:56:29;;;;;;;3.65;2.22;;;18.30;34.90;;;;;;4963285;28;20047;-86
2022/07/26 04:59:19;;;;;;;4.05;2.38;;;18.50;24.70;;;;;;4961696;28;20369;-89
2022/07/26 05:02:08;;;;;;;4.65;2.28;;;18.60;16.00;;;;;;4949234;28;20409;-88
2022/07/26 05:04:55;;;;;;;2.83;1.92;;;18.70;7.80;;;;;;4982193;28;20126;-91
2022/07/26 05:07:45;;;;;;;3.58;2.35;;;18.80;1.50;;;;;;4972791;28;20461;-93
2022/07/26 05:10:36;;;;;;;3.40;2.10;;;18.80;1.00;;;;;;4958423;29;20051;-88
2022/07/26 05:13:23;;;;;;;6.45;2.28;;;18.80;1.50;;;;;;4968209;28;20039;-91
2022/07/26 05:16:16;;;;;;;3.45;2.22;;;18.80;1.00;;;;;;4965167;28;20039;-88
2022/07/26 05:19:07;;;;;;;4.28;2.42;;;18.70;2.40;;;;;;4964850;28;20050;-86
2022/07/26 05:21:54;;;;;;;7.63;2.08;;;18.70;5.80;;;;;;4959594;29;20138;-89
2022/07/26 05:24:41;;;;;;;4.07;2.33;;;18.80;2.90;;;;;;4960424;29;20051;-88
2022/07/26 05:27:29;;;;;;;2.88;2.50;;;18.80;1.00;;;;;;4967339;28;20048;-89
2022/07/26 05:30:16;;;;;;;3.33;2.28;;;18.90;3.20;;;;;;4959302;28;20134;-87
2022/07/26 05:33:03;;;;;;;5.07;2.33;;;18.80;3.80;;;;;;4955289;28;20137;-87
2022/07/26 05:35:52;;;;;;;6.10;2.88;;;18.70;5.60;;;;;;4946312;28;20035;-88
2022/07/26 05:38:40;;;;;;;5.57;2.88;;;18.70;5.80;;;;;;4964555;28;20374;-86
2022/07/26 05:41:27;;;;;;;6.60;2.38;;;18.70;3.60;;;;;;4958798;28;20048;-87
2022/07/26 05:44:14;;;;;;;4.10;2.45;;;18.70;8.00;;;;;;4952392;29;20129;-86
2022/07/26 05:47:01;;;;;;;6.88;2.47;;;18.60;10.60;;;;;;4953611;28;20043;-83
2022/07/26 05:49:48;;;;;;;4.72;2.55;;;18.60;10.40;;;;;;4950938;28;20063;-84
2022/07/26 05:52:38;;;;;;;3.75;2.50;;;18.60;17.10;;;;;;4955895;28;20079;-85
2022/07/26 05:55:25;;;;;;;3.03;2.55;;;18.60;19.30;;;;;;4941261;29;20059;-87
2022/07/26 05:58:12;;;;;;;6.88;2.92;;;18.70;17.10;;;;;;4956930;28;20161;-87
2022/07/26 06:00:59;;;;;;;6.53;3.15;;;18.80;11.90;;;;;;4958091;28;20039;-84
2022/07/26 06:03:47;;;;;;;3.97;2.58;;;19.00;5.50;;;;;;4956139;28;20051;-87
2022/07/26 06:06:36;;;;;;;6.00;3.03;;;19.10;3.80;;;;;;4957239;28;20370;-87
2022/07/26 06:09:24;;;;;;;6.00;2.70;;;19.30;1.00;;;;;;4956053;28;20178;-87
2022/07/26 06:12:11;;;;;;;7.60;2.53;;;19.50;1.00;;;;;;4939681;29;20049;-87
2022/07/26 06:14:58;;;;;;;7.90;2.50;;;19.70;1.00;;;;;;4954652;28;20122;-86
2022/07/26 06:17:48;;;;;;;3.50;2.30;;;19.80;1.00;;;;;;4962442;28;20094;-87
2022/07/26 06:20:40;;;;;;;5.25;2.30;;;19.80;1.00;;;;;;4964932;28;20062;-86
2022/07/26 06:23:28;;;;;;;5.15;2.35;;;19.70;1.00;;;;;;4970760;28;20154;-81
2022/07/26 06:26:22;;;;;;;;;;;19.50;1.00;;;;;;4963205;28;20098;-85
2022/07/26 06:29:09;;;;;;;6.25;2.50;;;19.40;1.00;;;;;;4962350;29;19923;-86
2022/07/26 06:31:56;;;;;;;6.82;2.10;;;19.60;1.00;;;;;;4957601;28;20078;-87
2022/07/26 06:34:44;;;;;;;4.07;2.63;;;19.80;1.00;;;;;;4966815;29;20106;-87
2022/07/26 06:37:31;;;;;;;5.00;2.25;;;19.90;1.00;;;;;;4947584;29;20039;-89
2022/07/26 06:40:18;;;;;;;4.13;1.90;;;19.90;1.00;;;;;;4958180;29;20492;-89
2022/07/26 06:43:07;;;;;;;5.75;2.30;;;20.00;1.00;;;;;;4961504;28;20047;-88
2022/07/26 06:45:55;;;;;;;5.63;2.25;;;20.00;1.00;;;;;;4964379;28;20058;-86
2022/07/26 06:48:42;;;;;;;6.18;1.92;;;20.00;1.00;;;;;;4957853;28;20055;-92
2022/07/26 06:51:38;;;;;;;3.90;1.98;;;20.00;1.00;;;;;;4966366;28;20066;-88
2022/07/26 06:54:26;;;;;;;3.55;1.50;;;20.00;1.00;;;;;;4954944;28;20054;-87
2022/07/26 06:57:13;;;;;;;6.13;1.73;;;20.30;1.00;;;;;;4958411;28;20047;-91
2022/07/26 07:00:03;;;;;;;3.25;1.40;;;20.70;1.00;;;;;;4961683;28;20051;-92
2022/07/26 07:02:51;;;;;;;4.40;1.70;;;21.10;1.00;;;;;;4956663;28;20043;-92
2022/07/26 07:05:45;;;;;;;6.13;1.48;;;21.50;1.00;;;;;;4948594;28;20055;-89
2022/07/26 07:08:36;;;;;;;2.55;1.20;;;22.00;1.00;;;;;;4958246;28;20047;-89
2022/07/26 07:11:27;;;;;;;5.80;1.55;;;22.50;1.00;;;;;;4959081;28;20175;-91
2022/07/26 07:14:15;;;;;;;3.67;1.40;;;23.00;1.00;;;;;;4959682;28;20988;-84
2022/07/26 07:17:03;;;;;;;6.18;1.40;;;23.40;1.00;;;;;;4953915;29;20070;-88
2022/07/26 07:20:00;;;;;;;5.25;1.30;;;23.20;1.00;;;;;;4956790;28;20047;-86
2022/07/26 07:22:49;;;;;;;3.95;1.10;;;23.30;1.00;;;;;;4942688;29;20066;-85
2022/07/26 07:25:39;;;;;;;4.47;1.10;;;23.80;1.00;;;;;;4956897;29;20039;-89
2022/07/26 07:28:26;;;;;;;4.45;1.30;;;23.90;1.00;;;;;;4960374;28;20052;-89
2022/07/26 07:31:13;;;;;;;2.80;1.10;;;24.40;1.00;;;;;;4958344;28;20047;-91
2022/07/26 07:34:00;;;;;;;3.95;1.13;;;25.10;1.00;;;;;;4963367;28;20124;-89
2022/07/26 07:36:50;;;;;;;2.80;0.90;;;25.70;1.00;;;;;;4953252;28;20063;-83
2022/07/26 07:39:37;;;;;;;6.47;1.27;;;25.60;1.00;;;;;;4992415;28;20083;-84
2022/07/26 07:42:27;;;;;;;4.60;0.93;;;25.80;99.90;;;;;;4978654;28;20031;-82
2022/07/26 07:45:16;;;;;;;8.05;1.50;;;25.20;99.90;;;;;;4976615;28;20083;-85
2022/07/26 07:48:04;;;;;;;4.63;1.15;;;24.30;99.90;;;;;;4963581;29;20093;-89
2022/07/26 07:50:53;;;;;;;3.47;0.80;;;23.90;1.00;;;;;;4950994;29;20047;-90
2022/07/26 07:53:41;;;;;;;6.28;1.05;;;24.30;1.00;;;;;;4966757;28;20051;-89
2022/07/26 07:56:28;;;;;;;2.35;1.05;;;25.00;99.90;;;;;;4962727;28;20128;-89
2022/07/26 07:59:16;;;;;;;3.45;0.90;;;25.60;1.00;;;;;;4962323;28;20053;-86
2022/07/26 08:02:05;;;;;;;3.67;1.00;;;25.70;99.90;;;;;;4953001;29;20464;-92
2022/07/26 08:04:55;;;;;;;3.88;1.02;;;25.80;99.90;;;;;;4951798;28;20122;-86
2022/07/26 08:07:47;;;;;;;5.05;1.10;;;25.30;99.90;;;;;;4959707;28;20043;-92
2022/07/26 08:10:38;;;;;;;3.47;1.40;;;25.60;99.90;;;;;;4972285;29;20126;-89
2022/07/26 08:13:38;;;;;;;7.00;0.98;;;25.30;99.90;;;;;;4972134;29;20043;-79
2022/07/26 08:16:32;;;;;;;4.03;1.50;;;25.00;99.90;;;;;;4964741;28;20119;-80
2022/07/26 08:19:20;;;;;;;3.40;1.15;;;24.60;99.90;;;;;;4980382;28;20043;-85
2022/07/26 08:22:09;;;;;;;6.55;1.00;;;24.20;99.90;;;;;;4970086;28;20100;-84
2022/07/26 08:24:57;;;;;;;2.00;0.85;;;24.40;99.90;;;;;;4962859;28;20031;-79
2022/07/26 08:27:45;;;;;;;2.97;1.00;;;25.10;99.90;;;;;;4967168;28;20098;-89
2022/07/26 08:30:51;;;;;;;7.05;1.23;;;25.90;99.90;;;;;;4972373;29;20141;-87
2022/07/26 08:33:39;;;;;;;2.38;1.30;;;26.10;99.90;;;;;;4976839;28;20109;-88
2022/07/26 08:36:32;;;;;;;4.63;0.80;;;25.90;99.90;;;;;;4965977;28;20039;-87
2022/07/26 08:39:19;;;;;;;2.80;0.88;;;26.00;99.90;;;;;;4956448;28;20122;-88
2022/07/26 08:42:15;;;;;;;4.13;0.95;;;27.00;99.90;;;;;;4962988;28;20052;-85
2022/07/26 08:45:06;;;;;;;5.15;1.10;;;27.30;99.90;;;;;;4964098;28;20151;-88
2022/07/26 08:47:54;;;;;;;2.83;0.90;;;27.30;99.90;;;;;;4965901;28;20036;-87
2022/07/26 08:51:11;;;;;;;6.40;0.90;;;26.40;99.90;;;;;;4964825;28;20049;-86
2022/07/26 08:54:00;;;;;;;4.20;1.20;;;25.70;99.90;;;;;;4961251;29;20066;-87
2022/07/26 08:56:57;;;;;;;6.55;1.17;;;24.50;99.90;;;;;;4968135;28;20113;-87
2022/07/26 09:00:17;;;;;;;3.45;1.15;;;24.50;99.90;;;;;;4962585;28;20110;-85
2022/07/26 09:03:05;;;;;;;2.90;0.80;;;25.20;99.90;;;;;;4962092;28;20464;-86
2022/07/26 09:05:59;;;;;;;4.28;1.13;;;25.40;99.90;;;;;;4962326;28;20039;-85
2022/07/26 09:08:51;;;;;;;3.75;1.00;;;25.40;99.90;;;;;;4963456;28;20109;-85
2022/07/26 09:11:39;;;;;;;;;;;25.60;99.90;;;;;;4964016;28;20090;-85
2022/07/26 09:14:36;;;;;;;3.08;1.00;;;26.30;99.90;;;;;;4965558;28;19923;-83
2022/07/26 09:17:36;;;;;;;3.50;1.20;;;27.00;99.90;;;;;;4970107;28;20053;-87
2022/07/26 09:20:31;;;;;;;2.78;1.10;;;26.70;99.90;;;;;;4952797;29;20047;-87
2022/07/26 09:23:18;;;;;;;5.28;1.00;;;26.20;99.90;;;;;;4963092;28;20414;-89
2022/07/26 09:26:08;;;;;;;2.70;0.70;;;26.90;99.90;;;;;;4970051;28;20079;-90
2022/07/26 09:29:08;;;;;;;3.90;0.90;;;27.60;99.90;;;;;;4949644;29;20051;-89
2022/07/26 09:32:18;;;;;;;1.98;0.77;;;26.90;99.90;;;;;;4957021;29;20484;-88
2022/07/26 09:35:16;;;;;;;6.47;1.10;;;26.00;99.90;;;;;;4959030;29;20047;-91
2022/07/26 09:38:23;;;;;;;2.33;0.93;;;25.10;99.90;;;;;;4971853;28;20039;-89
2022/07/26 09:41:35;;;;;;;4.70;0.80;;;25.00;99.90;;;;;;4966452;29;20059;-90
2022/07/26 09:44:25;;;;;;;5.20;0.90;;;25.90;99.90;;;;;;4968127;28;20132;-90
2022/07/26 09:47:14;;;;;;;3.95;0.90;;;26.90;99.90;;;;;;4961476;29;20286;-87
2022/07/26 09:50:12;;;;;;;1.75;0.90;;;27.70;99.90;;;;;;4964702;28;20050;-86
2022/07/26 09:53:07;;;;;;;3.42;1.00;;;28.20;99.90;;;;;;4962911;28;20106;-91
2022/07/26 09:55:56;;;;;;;2.40;0.82;;;28.40;99.90;;;;;;4947791;28;20120;-89
2022/07/26 09:58:43;;;;;;;4.18;0.70;;;27.70;99.90;;;;;;4960601;28;20473;-88
2022/07/26 10:01:31;;;;;;;2.60;0.80;;;27.40;99.90;;;;;;4944034;28;20051;-87
2022/07/26 10:04:19;;;;;;;3.08;1.08;;;28.10;99.90;;;;;;4956514;28;20118;-89
2022/07/26 10:07:08;;;;;;;3.53;0.80;;;27.90;99.90;;;;;;4960246;28;20361;-90
2022/07/26 10:10:06;;;;;;;1.80;0.73;;;28.10;99.90;;;;;;4952294;28;20055;-91
2022/07/26 10:12:54;;;;;;;4.95;1.02;;;27.40;99.90;;;;;;4959102;28;20448;-90
2022/07/26 10:15:46;;;;;;;1.75;0.77;;;26.80;99.90;;;;;;4958603;28;20051;-90
2022/07/26 10:18:37;;;;;;;2.97;1.25;;;25.70;99.90;;;;;;4956603;28;21641;-84
2022/07/26 10:21:29;;;;;;;;;;;25.70;99.90;;;;;;4959529;28;20116;-86
2022/07/26 10:24:26;;;;;;;2.20;0.60;;;27.60;99.90;;;;;;4955804;28;19922;-90
2022/07/26 10:27:41;;;;;;;2.28;0.70;;;28.60;99.90;;;;;;4959689;28;20178;-89
2022/07/26 10:30:31;;;;;;;3.28;0.93;;;26.90;99.90;;;;;;4955564;28;20039;-88
2022/07/26 10:33:25;;;;;;;1.13;0.80;;;27.70;99.90;;;;;;4960749;28;20047;-88
2022/07/26 10:36:33;;;;;;;1.35;0.73;;;29.50;99.90;;;;;;4945205;28;20075;-89
2022/07/26 10:39:22;;;;;;;1.50;0.98;;;29.50;99.90;;;;;;4957542;28;20058;-89
2022/07/26 10:42:12;;;;;;;0.98;0.50;;;29.00;99.90;;;;;;4956521;29;20047;-89
2022/07/26 10:45:17;;;;;;;2.03;0.93;;;29.60;99.90;;;;;;4943787;29;20053;-89
2022/07/26 10:48:15;;;;;;;3.45;0.50;;;29.60;99.90;;;;;;4957967;28;20070;-89
2022/07/26 10:51:24;;;;;;;0.85;0.43;;;30.30;99.90;;;;;;4955078;28;20043;-87
2022/07/26 10:54:13;;;;;;;3.53;1.00;;;29.70;99.90;;;;;;4956573;28;20051;-86
2022/07/26 10:57:01;;;;;;;1.75;0.80;;;29.60;99.90;;;;;;4955010;28;20047;-90
2022/07/26 10:59:48;;;;;;;6.03;1.48;;;30.00;99.90;;;;;;4961302;28;20046;-86
2022/07/26 11:02:48;;;;;;;1.30;0.52;;;30.60;99.90;;;;;;4948536;29;20048;-87
2022/07/26 11:05:37;;;;;;;3.47;0.85;;;31.40;99.90;;;;;;4965504;28;20047;-87
2022/07/26 11:08:29;;;;;;;1.38;0.60;;;31.80;99.90;;;;;;4967534;28;20402;-87
2022/07/26 11:11:30;;;;;;;1.10;0.63;;;31.20;99.90;;;;;;4974761;28;20055;-89
2022/07/26 11:14:22;;;;;;;2.28;0.82;;;31.30;99.90;;;;;;4968683;28;20044;-88
2022/07/26 11:17:31;;;;;;;2.13;0.60;;;30.90;99.90;;;;;;4965536;28;20386;-88
2022/07/26 11:20:25;;;;;;;4.10;0.88;;;30.10;99.90;;;;;;4965772;28;20094;-89
2022/07/26 11:23:27;;;;;;;4.22;0.80;;;29.70;99.90;;;;;;4963673;28;20047;-84
2022/07/26 11:26:16;;;;;;;1.98;0.90;;;29.20;99.90;;;;;;4945098;28;20047;-89
2022/07/26 11:29:04;;;;;;;2.45;0.65;;;29.10;99.90;;;;;;4956424;28;20039;-85
2022/07/26 11:31:52;;;;;;;0.93;0.77;;;29.90;99.90;;;;;;4950918;28;20146;-83
2022/07/26 11:35:03;;;;;;;1.70;0.80;;;29.70;99.90;;;;;;4955008;29;20381;-86
2022/07/26 11:38:00;;;;;;;4.05;1.17;;;28.60;99.90;;;;;;4953626;28;20058;-84
2022/07/26 11:40:58;;;;;;;1.15;0.73;;;28.00;99.90;;;;;;4943752;29;20062;-87
2022/07/26 11:43:45;;;;;;;0.60;0.57;;;27.30;99.90;;;;;;4956551;28;20055;-85
2022/07/26 11:46:36;;;;;;;3.90;0.80;;;26.80;99.90;;;;;;4936876;29;20126;-84
2022/07/26 11:49:29;;;;;;;5.43;0.85;;;26.10;99.90;;;;;;4954937;28;20099;-85
2022/07/26 11:52:36;;;;;;;0.95;0.80;;;25.80;99.90;;;;;;4957577;29;20134;-85
2022/07/26 11:55:26;;;;;;;4.65;0.80;;;27.60;99.90;;;;;;4942992;29;20043;-87
2022/07/26 11:58:16;;;;;;;1.17;0.80;;;27.90;99.90;;;;;;4958594;28;20043;-85
2022/07/26 12:01:03;;;;;;;1.50;0.60;;;27.30;99.90;;;;;;4953692;28;20048;-83
2022/07/26 12:03:55;;;;;;;3.08;0.68;;;28.10;99.90;;;;;;4960844;28;20054;-89
2022/07/26 12:06:44;;;;;;;1.00;0.65;;;28.40;99.90;;;;;;4959248;28;20094;-91
2022/07/26 12:09:40;;;;;;;0.77;0.60;;;27.70;99.90;;;;;;4961192;28;20051;-90
2022/07/26 12:12:31;;;;;;;0.93;0.70;;;27.00;99.90;;;;;;4947425;28;20055;-90
2022/07/26 12:15:19;;;;;;;1.38;0.80;;;28.20;99.90;;;;;;4962833;28;20066;-88
2022/07/26 12:18:09;;;;;;;0.77;0.50;;;29.80;99.90;;;;;;4958819;28;20373;-87
2022/07/26 12:21:02;;;;;;;1.20;0.60;;;30.60;99.90;;;;;;4957833;29;20043;-90
2022/07/26 12:23:55;;;;;;;2.92;0.60;;;31.40;99.90;;;;;;4949011;29;20055;-88
2022/07/26 12:26:42;;;;;;;0.50;0.47;;;32.20;99.90;;;;;;4957507;28;20055;-88
2022/07/26 12:29:35;;;;;;;2.55;0.60;;;32.10;99.90;;;;;;4967848;28;20051;-88
2022/07/26 12:32:33;;;;;;;2.78;0.60;;;30.60;99.90;;;;;;4963714;28;20061;-89
2022/07/26 12:35:34;;;;;;;1.05;0.65;;;29.80;99.90;;;;;;4950326;28;20067;-87
2022/07/26 12:38:42;;;;;;;2.97;0.77;;;31.10;99.90;;;;;;4962186;28;20158;-90
2022/07/26 12:41:32;;;;;;;0.80;0.45;;;32.10;99.90;;;;;;4961960;28;20059;-89
2022/07/26 12:44:21;;;;;;;2.03;0.70;;;32.80;99.90;;;;;;4961663;29;20386;-90
2022/07/26 12:47:11;;;;;;;1.35;0.50;;;33.50;99.90;;;;;;4963953;29;20035;-85
2022/07/26 12:49:59;;;;;;;1.10;0.52;;;33.80;99.90;;;;;;4963461;28;20381;-88
2022/07/26 12:52:46;;;;;;;2.13;0.65;;;32.70;99.90;;;;;;4951960;29;20441;-84
2022/07/26 12:55:36;;;;;;;2.90;0.77;;;30.90;99.90;;;;;;4963021;28;20043;-86
2022/07/26 12:58:23;;;;;;;1.85;0.60;;;30.90;99.90;;;;;;4965156;28;20043;-86
2022/07/26 13:01:10;;;;;;;1.75;0.50;;;32.30;99.90;;;;;;4960165;28;20048;-87
2022/07/26 13:04:01;;;;;;;3.30;0.50;;;33.00;99.90;;;;;;4956388;28;20143;-89
2022/07/26 13:06:51;;;;;;;2.22;1.40;;;32.90;99.90;;;;;;4962927;28;20074;-89
2022/07/26 13:09:38;;;;;;;3.67;1.00;;;31.60;99.90;;;;;;4956999;29;20066;-87
2022/07/26 13:12:26;;;;;;;1.98;0.57;;;31.00;99.90;;;;;;4957870;28;20047;-90
2022/07/26 13:15:13;;;;;;;2.20;0.60;;;32.10;99.90;;;;;;4963662;28;20441;-88
2022/07/26 13:18:00;;;;;;;2.58;0.75;;;32.00;99.90;;;;;;4960836;28;20051;-84
2022/07/26 13:20:49;;;;;;;1.13;0.60;;;31.10;99.90;;;;;;4961933;28;20157;-88
2022/07/26 13:23:41;;;;;;;1.33;0.70;;;30.40;99.90;;;;;;4963059;29;20051;-90
2022/07/26 13:26:31;;;;;;;1.20;0.50;;;30.80;99.90;;;;;;4962280;28;20075;-87
2022/07/26 13:29:23;;;;;;;1.42;0.50;;;32.10;99.90;;;;;;4943451;29;20140;-87
2022/07/26 13:32:13;;;;;;;0.40;0.40;;;31.90;99.90;;;;;;4957461;28;20063;-88
2022/07/26 13:35:00;;;;;;;1.52;0.40;;;32.90;99.90;;;;;;4936483;29;20508;-89
2022/07/26 13:37:48;;;;;;;1.92;0.55;;;33.30;99.90;;;;;;4956076;28;20055;-80
2022/07/26 13:40:35;;;;;;;1.15;0.60;;;33.00;99.90;;;;;;4956536;28;20125;-80
2022/07/26 13:43:24;;;;;;;0.95;0.50;;;32.10;99.90;;;;;;4956185;28;20362;-82
2022/07/26 13:46:12;;;;;;;0.40;0.40;;;32.90;99.90;;;;;;4940570;28;20381;-84
2022/07/26 13:49:02;;;;;;;2.92;0.68;;;33.70;99.90;;;;;;4954879;29;20461;-85
2022/07/26 13:51:58;;;;;;;1.73;0.50;;;33.70;99.90;;;;;;4950511;28;20084;-85
2022/07/26 13:54:45;;;;;;;2.33;0.70;;;32.60;99.90;;;;;;4936315;28;20153;-82
2022/07/26 13:57:33;;;;;;;3.33;0.70;;;32.20;99.90;;;;;;4952309;28;20036;-84
2022/07/26 14:00:42;;;;;;;2.22;0.80;;;32.80;99.90;;;;;;4941197;29;20163;-84
2022/07/26 14:03:30;;;;;;;2.72;0.70;;;33.70;99.90;;;;;;4953227;29;20121;-84
2022/07/26 14:06:21;;;;;;;0.73;0.50;;;33.80;99.90;;;;;;4957286;28;20051;-84
2022/07/26 14:09:13;;;;;;;2.70;0.63;;;32.60;99.90;;;;;;4955455;28;20074;-87
2022/07/26 14:12:00;;;;;;;0.40;0.40;;;31.00;99.90;;;;;;4951926;28;20062;-85
2022/07/26 14:14:47;;;;;;;1.50;0.77;;;31.00;99.90;;;;;;4937928;29;20047;-85
2022/07/26 14:17:38;;;;;;;1.85;0.60;;;32.40;99.90;;;;;;4956553;29;20046;-82
2022/07/26 14:20:26;;;;;;;3.30;0.60;;;33.00;99.90;;;;;;4952145;28;20039;-83
2022/07/26 14:23:13;;;;;;;1.20;0.47;;;33.50;99.90;;;;;;4953713;29;20051;-82
2022/07/26 14:26:03;;;;;;;1.05;0.70;;;33.80;99.90;;;;;;4957370;28;20047;-83
2022/07/26 14:28:51;;;;;;;1.23;0.40;;;34.70;99.90;;;;;;4945764;29;20062;-85
2022/07/26 14:31:38;;;;;;;1.58;0.50;;;35.60;99.90;;;;;;4955690;28;20055;-85
2022/07/26 14:34:26;;;;;;;1.45;0.50;;;35.80;99.90;;;;;;4959468;28;20051;-86
2022/07/26 14:37:17;;;;;;;0.80;0.57;;;36.10;99.90;;;;;;4952806;29;20055;-88
2022/07/26 14:40:24;;;;;;;2.40;0.90;;;35.00;99.90;;;;;;4957570;29;20099;-86
2022/07/26 14:43:13;;;;;;;1.55;0.60;;;33.00;99.90;;;;;;4966916;28;20055;-87
2022/07/26 14:46:03;;;;;;;1.70;0.55;;;32.80;99.90;;;;;;4973985;28;20071;-81
2022/07/26 14:48:53;;;;;;;1.38;0.60;;;34.10;99.90;;;;;;4942990;29;20048;-86
2022/07/26 14:51:41;;;;;;;1.02;0.50;;;34.40;99.90;;;;;;4954379;29;20103;-86
2022/07/26 14:54:28;;;;;;;1.27;0.60;;;34.90;99.90;;;;;;4967487;28;20047;-84
2022/07/26 14:57:15;;;;;;;4.93;0.57;;;35.20;99.90;;;;;;4944031;28;20039;-85
2022/07/26 15:00:04;;;;;;;0.82;0.60;;;34.60;99.90;;;;;;4955350;28;20047;-83